createdAt,value
2023-02-24T00:01:28.199Z,6.70
2023-02-24T00:03:58.394Z,6.70
2023-02-24T00:06:35.924Z,6.70
2023-02-24T00:09:07.933Z,6.70
2023-02-24T00:11:36.722Z,6.70
2023-02-24T00:14:06.691Z,6.70
2023-02-24T00:16:35.239Z,6.70
2023-02-24T00:19:03.739Z,6.70
2023-02-24T00:21:32.923Z,6.60
2023-02-24T00:24:00.660Z,6.60
2023-02-24T00:26:30.059Z,6.60
2023-02-24T00:29:00.029Z,6.60
2023-02-24T00:31:31.045Z,6.60
2023-02-24T00:34:00.121Z,6.60
2023-02-24T00:36:29.479Z,6.60
2023-02-24T00:39:00.753Z,6.60
2023-02-24T00:41:30.567Z,6.60
2023-02-24T00:44:05.913Z,6.60
2023-02-24T00:46:36.728Z,6.60
2023-02-24T00:49:06.591Z,6.60
2023-02-24T00:51:37.620Z,6.60
2023-02-24T00:54:07.855Z,6.60
2023-02-24T00:56:36.107Z,6.60
2023-02-24T00:59:03.931Z,6.50
2023-02-24T01:01:34.890Z,6.50
2023-02-24T01:04:11.068Z,6.50
2023-02-24T01:06:40.655Z,6.50
2023-02-24T01:09:13.267Z,6.40
2023-02-24T01:11:58.593Z,6.40
2023-02-24T01:14:29.106Z,6.30
2023-02-24T01:16:57.682Z,6.30
2023-02-24T01:19:31.337Z,6.20
2023-02-24T01:22:00.941Z,6.20
2023-02-24T01:24:32.166Z,6.20
2023-02-24T01:27:00.014Z,6.20
2023-02-24T01:29:27.847Z,6.20
2023-02-24T01:31:58.115Z,6.20
2023-02-24T01:34:27.371Z,6.20
2023-02-24T01:36:55.618Z,6.20
2023-02-24T01:39:23.410Z,6.10
2023-02-24T01:41:53.064Z,6.10
2023-02-24T01:44:59.167Z,6.00
2023-02-24T01:47:30.987Z,5.90
2023-02-24T01:49:58.891Z,5.90
2023-02-24T01:52:31.271Z,5.90
2023-02-24T01:55:04.618Z,5.80
2023-02-24T01:57:36.434Z,5.80
2023-02-24T02:00:30.600Z,5.80
2023-02-24T02:03:00.574Z,5.80
2023-02-24T02:05:28.890Z,5.70
2023-02-24T02:07:57.283Z,5.70
2023-02-24T02:10:26.300Z,5.70
2023-02-24T02:12:56.465Z,5.70
2023-02-24T02:15:24.447Z,5.70
2023-02-24T02:18:01.211Z,5.70
2023-02-24T02:20:56.790Z,5.70
2023-02-24T02:23:53.825Z,5.60
2023-02-24T02:26:44.522Z,5.60
2023-02-24T02:29:53.179Z,5.60
2023-02-24T02:33:01.817Z,5.50
2023-02-24T02:35:37.287Z,5.50
2023-02-24T02:38:15.059Z,5.40
2023-02-24T02:40:49.737Z,5.40
2023-02-24T02:43:24.494Z,5.40
2023-02-24T02:45:58.813Z,5.30
2023-02-24T02:48:33.898Z,5.30
2023-02-24T02:51:09.872Z,5.30
2023-02-24T02:53:46.402Z,5.30
2023-02-24T02:56:18.284Z,5.20
2023-02-24T02:58:49.386Z,5.20
2023-02-24T03:01:20.801Z,5.20
2023-02-24T03:03:53.013Z,5.20
2023-02-24T03:06:27.514Z,5.20
2023-02-24T03:09:00.791Z,5.20
2023-02-24T03:11:32.402Z,5.20
2023-02-24T03:14:02.681Z,5.10
2023-02-24T03:16:30.632Z,5.10
2023-02-24T03:19:03.708Z,5.10
2023-02-24T03:21:38.002Z,5.10
2023-02-24T03:24:06.803Z,5.10
2023-02-24T03:26:41.641Z,5.00
2023-02-24T03:29:17.364Z,5.00
2023-02-24T03:31:48.700Z,5.00
2023-02-24T03:34:23.748Z,4.90
2023-02-24T03:36:54.338Z,4.90
2023-02-24T03:39:22.572Z,4.80
2023-02-24T03:41:56.110Z,4.80
2023-02-24T03:44:24.614Z,4.80
2023-02-24T03:46:52.589Z,4.80
2023-02-24T03:49:20.808Z,4.70
2023-02-24T03:52:08.651Z,4.70
2023-02-24T03:54:52.664Z,4.70
2023-02-24T03:57:29.441Z,4.70
2023-02-24T04:00:25.660Z,4.70
2023-02-24T04:03:04.206Z,4.70
2023-02-24T04:05:36.662Z,4.70
2023-02-24T04:08:09.486Z,4.70
2023-02-24T04:10:52.247Z,4.70
2023-02-24T04:13:28.725Z,4.70
2023-02-24T04:16:02.986Z,4.70
2023-02-24T04:18:33.581Z,4.70
2023-02-24T04:21:05.687Z,4.70
2023-02-24T04:23:39.919Z,4.70
2023-02-24T04:26:09.847Z,4.70
2023-02-24T04:28:37.696Z,4.70
2023-02-24T04:31:11.057Z,4.70
2023-02-24T04:33:39.164Z,4.70
2023-02-24T04:36:08.927Z,4.60
2023-02-24T04:38:37.973Z,4.60
2023-02-24T04:41:05.976Z,4.60
2023-02-24T04:43:33.696Z,4.50
2023-02-24T04:46:07.510Z,4.60
2023-02-24T04:48:35.592Z,4.50
2023-02-24T04:51:06.436Z,4.50
2023-02-24T04:53:34.356Z,4.50
2023-02-24T04:56:08.768Z,4.50
2023-02-24T04:58:37.827Z,4.40
2023-02-24T05:01:10.143Z,4.40
2023-02-24T05:03:42.032Z,4.40
2023-02-24T05:06:15.917Z,4.40
2023-02-24T05:08:44.490Z,4.30
2023-02-24T05:11:16.864Z,4.30
2023-02-24T05:13:46.340Z,4.30
2023-02-24T05:16:16.579Z,4.20
2023-02-24T05:18:45.374Z,4.20
2023-02-24T05:21:32.781Z,4.10
2023-02-24T05:24:06.280Z,4.10
2023-02-24T05:26:37.167Z,4.00
2023-02-24T05:29:07.503Z,3.90
2023-02-24T05:31:35.440Z,3.90
2023-02-24T05:34:05.790Z,3.80
2023-02-24T05:36:38.869Z,3.80
2023-02-24T05:39:07.909Z,3.80
2023-02-24T05:41:39.469Z,3.70
2023-02-24T05:44:09.428Z,3.70
2023-02-24T05:46:40.152Z,3.70
2023-02-24T05:49:14.154Z,3.70
2023-02-24T05:51:54.281Z,3.60
2023-02-24T05:54:23.740Z,3.60
2023-02-24T05:56:53.164Z,3.60
2023-02-24T05:59:21.535Z,3.60
2023-02-24T06:01:52.932Z,3.60
2023-02-24T06:04:39.365Z,3.60
2023-02-24T06:07:08.803Z,3.60
2023-02-24T06:09:40.051Z,3.60
2023-02-24T06:12:09.278Z,3.60
2023-02-24T06:14:37.079Z,3.60
2023-02-24T06:17:05.563Z,3.60
2023-02-24T06:19:33.608Z,3.60
2023-02-24T06:22:02.627Z,3.60
2023-02-24T06:24:31.001Z,3.60
2023-02-24T06:27:02.488Z,3.50
2023-02-24T06:29:31.869Z,3.50
2023-02-24T06:31:59.751Z,3.40
2023-02-24T06:34:27.997Z,3.40
2023-02-24T06:36:55.807Z,3.50
2023-02-24T06:39:23.637Z,3.40
2023-02-24T06:41:52.756Z,3.40
2023-02-24T06:44:20.604Z,3.40
2023-02-24T06:46:50.098Z,3.50
2023-02-24T06:49:17.844Z,3.50
2023-02-24T06:51:45.569Z,3.50
2023-02-24T06:54:13.310Z,3.50
2023-02-24T06:56:41.735Z,3.50
2023-02-24T06:59:12.672Z,3.60
2023-02-24T07:01:45.100Z,3.60
2023-02-24T07:04:21.057Z,3.60
2023-02-24T07:06:53.075Z,3.60
2023-02-24T07:09:23.165Z,3.60
2023-02-24T07:11:53.261Z,3.60
2023-02-24T07:14:23.295Z,3.70
2023-02-24T07:16:54.240Z,3.70
2023-02-24T07:19:26.724Z,3.70
2023-02-24T07:21:59.861Z,3.70
2023-02-24T07:24:32.948Z,3.70
2023-02-24T07:27:02.853Z,3.80
2023-02-24T07:29:32.298Z,3.80
2023-02-24T07:32:03.437Z,3.80
2023-02-24T07:34:33.647Z,3.80
2023-02-24T07:37:06.520Z,3.80
2023-02-24T07:39:35.182Z,3.80
2023-02-24T07:42:02.996Z,3.80
2023-02-24T07:44:30.866Z,3.80
2023-02-24T07:46:59.356Z,3.90
2023-02-24T07:49:30.170Z,3.80
2023-02-24T07:51:59.933Z,3.90
2023-02-24T07:54:30.017Z,3.90
2023-02-24T07:56:59.151Z,3.90
2023-02-24T07:59:29.745Z,3.90
2023-02-24T08:01:58.207Z,3.90
2023-02-24T08:04:29.113Z,3.90
2023-02-24T08:07:02.451Z,3.90
2023-02-24T08:09:49.737Z,4.00
2023-02-24T08:12:21.102Z,4.00
2023-02-24T08:14:51.613Z,4.00
2023-02-24T08:17:20.856Z,4.00
2023-02-24T08:19:50.311Z,4.00
2023-02-24T08:22:24.181Z,4.10
2023-02-24T08:24:54.393Z,4.10
2023-02-24T08:27:23.959Z,4.10
2023-02-24T08:29:59.753Z,4.10
2023-02-24T08:32:33.617Z,4.10
2023-02-24T08:35:04.773Z,4.20
2023-02-24T08:37:39.579Z,4.10
2023-02-24T08:40:29.552Z,4.20
2023-02-24T08:42:58.516Z,4.20
2023-02-24T08:45:28.689Z,4.20
2023-02-24T08:48:00.411Z,4.20
2023-02-24T08:50:32.554Z,4.20
2023-02-24T08:53:01.984Z,4.20
2023-02-24T08:55:32.873Z,4.20
2023-02-24T08:58:02.290Z,4.20
2023-02-24T09:00:48.819Z,4.30
2023-02-24T09:03:27.935Z,4.30
2023-02-24T09:06:00.842Z,4.30
2023-02-24T09:08:33.518Z,4.30
2023-02-24T09:11:07.590Z,4.30
2023-02-24T09:13:36.907Z,4.30
2023-02-24T09:16:05.992Z,4.30
2023-02-24T09:18:38.319Z,4.30
2023-02-24T09:21:27.914Z,4.30
2023-02-24T09:23:57.016Z,4.40
2023-02-24T09:26:24.756Z,4.40
2023-02-24T09:28:56.473Z,4.40
2023-02-24T09:31:40.314Z,4.40
2023-02-24T09:34:10.453Z,4.40
2023-02-24T09:36:44.907Z,4.40
2023-02-24T09:39:15.405Z,4.40
2023-02-24T09:42:24.864Z,4.40
2023-02-24T09:44:55.647Z,4.40
2023-02-24T09:47:39.585Z,4.40
2023-02-24T09:50:44.236Z,4.40
2023-02-24T09:53:17.136Z,4.40
2023-02-24T09:56:04.716Z,4.50
2023-02-24T09:58:47.554Z,4.50
2023-02-24T10:01:34.106Z,4.60
2023-02-24T10:04:21.188Z,4.50
2023-02-24T10:06:50.958Z,4.50
2023-02-24T10:09:26.540Z,4.50
2023-02-24T10:12:04.197Z,4.40
2023-02-24T10:14:44.394Z,4.50
2023-02-24T10:17:30.503Z,4.40
2023-02-24T10:20:02.340Z,4.40
2023-02-24T10:22:50.213Z,4.40
2023-02-24T10:25:27.281Z,4.40
2023-02-24T10:28:08.422Z,4.50
2023-02-24T10:30:48.357Z,4.50
2023-02-24T10:33:25.282Z,4.50
2023-02-24T10:36:09.005Z,4.50
2023-02-24T10:38:37.827Z,4.50
2023-02-24T10:41:07.046Z,4.50
2023-02-24T10:43:45.507Z,4.50
2023-02-24T10:46:40.952Z,4.50
2023-02-24T10:49:16.125Z,4.50
2023-02-24T10:51:49.644Z,4.40
2023-02-24T10:54:34.210Z,4.40
2023-02-24T10:57:15.496Z,4.40
2023-02-24T11:00:19.629Z,4.40
2023-02-24T11:03:10.365Z,4.40
2023-02-24T11:05:44.212Z,4.40
2023-02-24T11:08:36.495Z,4.40
2023-02-24T11:11:20.203Z,4.40
2023-02-24T11:14:09.595Z,4.40
2023-02-24T11:17:09.551Z,4.40
2023-02-24T11:19:45.010Z,4.40
2023-02-24T11:22:16.918Z,4.40
2023-02-24T11:24:46.611Z,4.40
2023-02-24T11:27:17.181Z,4.40
2023-02-24T11:29:58.291Z,4.40
2023-02-24T11:32:45.438Z,4.40
2023-02-24T11:35:20.926Z,4.40
2023-02-24T11:38:00.372Z,4.40
2023-02-24T11:40:31.851Z,4.40
2023-02-24T11:43:03.927Z,4.40
2023-02-24T11:45:36.175Z,4.40
2023-02-24T11:48:14.768Z,4.40
2023-02-24T11:50:46.745Z,4.40
2023-02-24T11:53:25.062Z,4.30
2023-02-24T11:55:59.232Z,4.30
2023-02-24T11:58:35.618Z,4.30
2023-02-24T12:01:10.992Z,4.20
2023-02-24T12:03:50.402Z,4.20
2023-02-24T12:06:23.717Z,4.20
2023-02-24T12:08:57.444Z,4.20
2023-02-24T12:11:38.397Z,4.20
2023-02-24T12:14:19.768Z,4.10
2023-02-24T12:16:53.904Z,4.10
2023-02-24T12:19:31.039Z,4.10
2023-02-24T12:22:05.752Z,4.10
2023-02-24T12:24:35.759Z,4.10
2023-02-24T12:27:15.110Z,4.10
2023-02-24T12:29:56.497Z,4.10
2023-02-24T12:32:38.535Z,4.10
2023-02-24T12:35:19.887Z,4.10
2023-02-24T12:38:03.400Z,4.10
2023-02-24T12:40:42.032Z,4.10
2023-02-24T12:43:18.967Z,4.00
2023-02-24T12:45:54.586Z,4.00
2023-02-24T12:48:42.290Z,4.00
2023-02-24T12:51:20.704Z,4.00
2023-02-24T12:53:57.706Z,4.00
2023-02-24T12:56:28.791Z,4.00
2023-02-24T12:59:02.192Z,4.00
2023-02-24T13:01:37.638Z,4.00
2023-02-24T13:04:15.380Z,3.90
2023-02-24T13:06:57.049Z,3.90
2023-02-24T13:09:32.082Z,4.00
2023-02-24T13:12:07.205Z,3.90
2023-02-24T13:14:37.748Z,3.90
2023-02-24T13:17:17.334Z,3.90
2023-02-24T13:19:45.784Z,3.80
2023-02-24T13:22:30.644Z,3.80
2023-02-24T13:25:04.216Z,3.80
2023-02-24T13:27:35.810Z,3.80
2023-02-24T13:30:08.682Z,3.80
2023-02-24T13:32:38.192Z,3.80
2023-02-24T13:35:07.993Z,3.80
2023-02-24T13:37:39.323Z,3.70
2023-02-24T13:40:26.481Z,3.80
2023-02-24T13:43:00.768Z,3.70
2023-02-24T13:45:29.836Z,3.70
2023-02-24T13:48:19.328Z,3.60
2023-02-24T13:51:02.244Z,3.70
2023-02-24T13:53:45.617Z,3.60
2023-02-24T13:56:26.207Z,3.60
2023-02-24T13:59:21.158Z,3.60
2023-02-24T14:01:51.504Z,3.60
2023-02-24T14:04:23.326Z,3.50
2023-02-24T14:06:53.930Z,3.60
2023-02-24T14:09:28.536Z,3.50
2023-02-24T14:12:01.246Z,3.50
2023-02-24T14:14:30.639Z,3.50
2023-02-24T14:16:58.503Z,3.50
2023-02-24T14:19:26.994Z,3.50
2023-02-24T14:21:56.059Z,3.40
2023-02-24T14:24:27.633Z,3.40
2023-02-24T14:26:57.452Z,3.40
2023-02-24T14:29:31.657Z,3.40
2023-02-24T14:32:00.522Z,3.40
2023-02-24T14:34:30.974Z,3.40
2023-02-24T14:37:02.662Z,3.40
2023-02-24T14:39:34.110Z,3.40
2023-02-24T14:42:13.153Z,3.40
2023-02-24T14:44:47.235Z,3.40
2023-02-24T14:47:16.722Z,3.30
2023-02-24T14:49:54.787Z,3.30
2023-02-24T14:52:30.572Z,3.30
2023-02-24T14:55:04.324Z,3.30
2023-02-24T14:57:35.582Z,3.30
2023-02-24T15:00:11.474Z,3.30
2023-02-24T15:02:43.737Z,3.30
2023-02-24T15:05:12.495Z,3.30
2023-02-24T15:07:40.909Z,3.30
2023-02-24T15:10:21.388Z,3.30
2023-02-24T15:12:52.309Z,3.30
2023-02-24T15:15:23.518Z,3.30
2023-02-24T15:17:56.484Z,3.30
2023-02-24T15:20:33.627Z,3.30
2023-02-24T15:23:01.881Z,3.30
2023-02-24T15:25:43.042Z,3.30
2023-02-24T15:28:25.237Z,3.30
2023-02-24T15:31:01.123Z,3.30
2023-02-24T15:33:35.138Z,3.30
2023-02-24T15:36:09.643Z,3.30
2023-02-24T15:38:39.572Z,3.30
2023-02-24T15:41:11.032Z,3.30
2023-02-24T15:43:46.007Z,3.30
2023-02-24T15:46:23.608Z,3.40
2023-02-24T15:48:53.589Z,3.40
2023-02-24T15:51:27.974Z,3.40
2023-02-24T15:53:56.756Z,3.40
2023-02-24T15:56:25.948Z,3.40
2023-02-24T15:58:53.661Z,3.40
2023-02-24T16:01:21.488Z,3.40
2023-02-24T16:03:49.499Z,3.40
2023-02-24T16:06:20.751Z,3.50
2023-02-24T16:08:50.248Z,3.50
2023-02-24T16:11:20.905Z,3.50
2023-02-24T16:13:54.750Z,3.50
2023-02-24T16:16:23.496Z,3.50
2023-02-24T16:18:51.514Z,3.50
2023-02-24T16:21:20.101Z,3.50
2023-02-24T16:23:48.553Z,3.60
2023-02-24T16:26:18.059Z,3.60
2023-02-24T16:28:49.272Z,3.60
2023-02-24T16:31:18.529Z,3.60
2023-02-24T16:33:54.501Z,3.60
2023-02-24T16:36:24.216Z,3.60
2023-02-24T16:38:52.433Z,3.60
2023-02-24T16:41:20.612Z,3.60
2023-02-24T16:43:48.413Z,3.60
2023-02-24T16:46:20.959Z,3.70
2023-02-24T16:48:50.520Z,3.70
2023-02-24T16:51:18.504Z,3.70
2023-02-24T16:53:46.716Z,3.70
2023-02-24T16:56:15.218Z,3.70
2023-02-24T16:58:43.419Z,3.70
2023-02-24T17:01:19.108Z,3.70
2023-02-24T17:03:50.427Z,3.70
2023-02-24T17:06:19.780Z,3.70
2023-02-24T17:08:49.958Z,3.70
2023-02-24T17:11:20.001Z,3.80
2023-02-24T17:13:47.900Z,3.80
2023-02-24T17:16:15.627Z,3.80
2023-02-24T17:18:43.342Z,3.80
2023-02-24T17:21:14.279Z,3.80
2023-02-24T17:23:43.377Z,3.80
2023-02-24T17:26:14.114Z,3.80
2023-02-24T17:28:41.965Z,3.80
2023-02-24T17:31:09.820Z,3.80
2023-02-24T17:33:37.603Z,3.80
2023-02-24T17:36:05.515Z,3.80
2023-02-24T17:38:34.612Z,3.90
2023-02-24T17:41:02.521Z,3.90
2023-02-24T17:43:30.318Z,3.90
2023-02-24T17:45:58.124Z,3.90
2023-02-24T17:48:25.877Z,3.90
2023-02-24T17:50:53.783Z,3.90
2023-02-24T17:53:21.545Z,4.00
2023-02-24T17:56:02.422Z,3.90
2023-02-24T17:58:30.737Z,4.00
2023-02-24T18:00:58.484Z,4.00
2023-02-24T18:03:26.295Z,4.00
2023-02-24T18:06:00.233Z,4.00
2023-02-24T18:08:28.378Z,4.00
2023-02-24T18:10:58.968Z,4.10
2023-02-24T18:13:27.066Z,4.10
2023-02-24T18:15:54.932Z,4.10
2023-02-24T18:18:24.073Z,4.10
2023-02-24T18:20:52.092Z,4.20
2023-02-24T18:23:20.250Z,4.20
2023-02-24T18:25:48.021Z,4.20
2023-02-24T18:28:17.070Z,4.20
2023-02-24T18:30:44.901Z,4.20
2023-02-24T18:33:12.951Z,4.20
2023-02-24T18:35:40.856Z,4.20
2023-02-24T18:38:08.579Z,4.20
2023-02-24T18:40:36.316Z,4.20
2023-02-24T18:43:04.039Z,4.30
2023-02-24T18:45:33.128Z,4.30
2023-02-24T18:48:04.755Z,4.30
2023-02-24T18:50:33.803Z,4.30
2023-02-24T18:53:01.527Z,4.30
2023-02-24T18:55:29.806Z,4.20
2023-02-24T18:57:58.559Z,4.10
2023-02-24T19:00:26.420Z,4.00
2023-02-24T19:02:55.521Z,3.90
2023-02-24T19:05:24.121Z,3.90
2023-02-24T19:07:51.879Z,3.90
2023-02-24T19:10:19.833Z,3.90
2023-02-24T19:12:50.496Z,3.90
2023-02-24T19:15:18.644Z,4.00
2023-02-24T19:17:46.453Z,4.00
2023-02-24T19:20:15.855Z,4.00
2023-02-24T19:22:43.902Z,4.00
2023-02-24T19:25:11.650Z,4.10
2023-02-24T19:27:39.850Z,4.10
2023-02-24T19:30:09.108Z,4.10
2023-02-24T19:32:37.013Z,4.10
2023-02-24T19:35:05.154Z,4.10
2023-02-24T19:37:34.429Z,4.00
2023-02-24T19:40:02.299Z,4.00
2023-02-24T19:42:30.328Z,3.90
2023-02-24T19:44:58.027Z,3.90
2023-02-24T19:47:25.870Z,3.90
2023-02-24T19:49:53.595Z,3.80
2023-02-24T19:52:21.333Z,3.80
2023-02-24T19:54:50.492Z,3.70
2023-02-24T19:57:18.239Z,3.70
2023-02-24T19:59:45.990Z,3.70
2023-02-24T20:02:13.706Z,3.70
2023-02-24T20:04:41.537Z,3.70
2023-02-24T20:07:09.442Z,3.70
2023-02-24T20:09:37.484Z,3.70
2023-02-24T20:12:06.644Z,3.60
2023-02-24T20:14:34.462Z,3.60
2023-02-24T20:17:02.271Z,3.60
2023-02-24T20:19:32.771Z,3.60
2023-02-24T20:22:00.507Z,3.60
2023-02-24T20:24:28.313Z,3.60
2023-02-24T20:26:56.361Z,3.60
2023-02-24T20:29:25.421Z,3.60
2023-02-24T20:31:53.281Z,3.60
2023-02-24T20:34:21.916Z,3.60
2023-02-24T20:36:49.717Z,3.60
2023-02-24T20:39:17.458Z,3.60
2023-02-24T20:41:45.397Z,3.70
2023-02-24T20:44:13.204Z,3.60
2023-02-24T20:46:42.341Z,3.60
2023-02-24T20:49:14.531Z,3.60
2023-02-24T20:51:43.436Z,3.70
2023-02-24T20:54:12.732Z,3.70
2023-02-24T20:56:42.273Z,3.70
2023-02-24T20:59:13.407Z,3.70
2023-02-24T21:01:46.504Z,3.70
2023-02-24T21:04:16.056Z,3.70
2023-02-24T21:06:43.911Z,3.70
2023-02-24T21:09:12.107Z,3.70
2023-02-24T21:11:40.031Z,3.70
2023-02-24T21:14:07.994Z,3.80
2023-02-24T21:16:36.285Z,3.70
2023-02-24T21:19:05.404Z,3.70
2023-02-24T21:21:33.148Z,3.70
2023-02-24T21:24:00.860Z,3.70
2023-02-24T21:26:29.248Z,3.70
2023-02-24T21:28:59.109Z,3.70
2023-02-24T21:31:29.003Z,3.70
2023-02-24T21:33:57.320Z,3.60
2023-02-24T21:36:27.915Z,3.60
2023-02-24T21:38:56.402Z,3.60
2023-02-24T21:41:24.717Z,3.60
2023-02-24T21:43:54.586Z,3.60
2023-02-24T21:46:24.632Z,3.60
2023-02-24T21:48:55.212Z,3.60
2023-02-24T21:51:24.661Z,3.60
2023-02-24T21:53:55.267Z,3.60
2023-02-24T21:56:25.778Z,3.60
2023-02-24T21:58:55.139Z,3.60
2023-02-24T22:01:26.562Z,3.50
2023-02-24T22:03:55.043Z,3.50
2023-02-24T22:06:23.419Z,3.50
2023-02-24T22:08:52.702Z,3.50
2023-02-24T22:11:20.618Z,3.60
2023-02-24T22:13:49.413Z,3.50
2023-02-24T22:16:19.278Z,3.50
2023-02-24T22:18:48.138Z,3.50
2023-02-24T22:21:18.220Z,3.50
2023-02-24T22:23:46.592Z,3.50
2023-02-24T22:26:17.535Z,3.50
2023-02-24T22:28:47.628Z,3.50
2023-02-24T22:31:17.969Z,3.50
2023-02-24T22:33:46.504Z,3.50
2023-02-24T22:36:15.887Z,3.50
2023-02-24T22:38:45.447Z,3.50
2023-02-24T22:41:17.071Z,3.50
2023-02-24T22:43:45.085Z,3.50
2023-02-24T22:46:15.012Z,3.50
2023-02-24T22:48:43.180Z,3.50
2023-02-24T22:51:12.096Z,3.50
2023-02-24T22:53:42.626Z,3.50
2023-02-24T22:56:13.285Z,3.50
2023-02-24T22:58:43.328Z,3.50
2023-02-24T23:01:12.136Z,3.50
2023-02-24T23:03:40.802Z,3.50
2023-02-24T23:06:13.324Z,3.50
2023-02-24T23:08:43.066Z,3.50
2023-02-24T23:11:14.013Z,3.50
2023-02-24T23:13:45.367Z,3.50
2023-02-24T23:16:15.445Z,3.50
2023-02-24T23:18:48.359Z,3.40
2023-02-24T23:21:16.929Z,3.40
2023-02-24T23:23:45.299Z,3.40
2023-02-24T23:26:13.024Z,3.40
2023-02-24T23:28:41.333Z,3.40
2023-02-24T23:31:10.530Z,3.40
2023-02-24T23:33:40.779Z,3.40
2023-02-24T23:36:09.568Z,3.40
2023-02-24T23:38:37.301Z,3.40
2023-02-24T23:41:09.161Z,3.40
2023-02-24T23:43:38.006Z,3.30
2023-02-24T23:46:07.041Z,3.30
2023-02-24T23:48:37.056Z,3.30
2023-02-24T23:51:06.535Z,3.30
2023-02-24T23:53:38.287Z,3.30
2023-02-24T23:56:09.313Z,3.30
2023-02-24T23:58:38.091Z,3.20
